sensor_id;sensor_type;location;lat;lon;timestamp;temperature;humidity
29295;DHT22;16305;48.566;8.846;2023-02-01T00:02:12;1.80;99.90
29295;DHT22;16305;48.566;8.846;2023-02-01T00:04:37;1.80;99.90
29295;DHT22;16305;48.566;8.846;2023-02-01T00:07:03;1.80;99.90
29295;DHT22;16305;48.566;8.846;2023-02-01T00:09:29;1.80;99.90
29295;DHT22;16305;48.566;8.846;2023-02-01T00:11:54;1.80;99.90
29295;DHT22;16305;48.566;8.846;2023-02-01T00:14:20;1.80;99.90
29295;DHT22;16305;48.566;8.846;2023-02-01T00:16:46;1.80;99.90
29295;DHT22;16305;48.566;8.846;2023-02-01T00:19:14;1.80;99.90
29295;DHT22;16305;48.566;8.846;2023-02-01T00:21:40;1.80;99.90
29295;DHT22;16305;48.566;8.846;2023-02-01T00:24:06;1.80;99.90
29295;DHT22;16305;48.566;8.846;2023-02-01T00:26:37;1.80;99.90
29295;DHT22;16305;48.566;8.846;2023-02-01T00:29:05;1.80;99.90
29295;DHT22;16305;48.566;8.846;2023-02-01T00:31:31;1.80;99.90
29295;DHT22;16305;48.566;8.846;2023-02-01T00:33:57;1.80;99.90
29295;DHT22;16305;48.566;8.846;2023-02-01T00:36:23;1.80;99.90
29295;DHT22;16305;48.566;8.846;2023-02-01T00:38:48;1.80;99.90
29295;DHT22;16305;48.566;8.846;2023-02-01T00:41:16;1.80;99.90
29295;DHT22;16305;48.566;8.846;2023-02-01T00:43:43;1.80;99.90
29295;DHT22;16305;48.566;8.846;2023-02-01T00:46:09;1.80;99.90
29295;DHT22;16305;48.566;8.846;2023-02-01T00:48:35;1.80;99.90
29295;DHT22;16305;48.566;8.846;2023-02-01T00:51:06;1.80;99.90
29295;DHT22;16305;48.566;8.846;2023-02-01T00:53:33;1.80;99.90
29295;DHT22;16305;48.566;8.846;2023-02-01T00:55:59;1.80;99.90
29295;DHT22;16305;48.566;8.846;2023-02-01T00:58:25;1.80;99.90
29295;DHT22;16305;48.566;8.846;2023-02-01T01:03:37;1.80;99.90
29295;DHT22;16305;48.566;8.846;2023-02-01T01:06:06;1.80;99.90
29295;DHT22;16305;48.566;8.846;2023-02-01T01:08:32;1.80;99.90
29295;DHT22;16305;48.566;8.846;2023-02-01T01:10:58;1.80;99.90
29295;DHT22;16305;48.566;8.846;2023-02-01T01:13:23;1.80;99.90
29295;DHT22;16305;48.566;8.846;2023-02-01T01:15:49;1.80;99.90
29295;DHT22;16305;48.566;8.846;2023-02-01T01:18:14;1.80;99.90
29295;DHT22;16305;48.566;8.846;2023-02-01T01:20:41;1.80;99.90
29295;DHT22;16305;48.566;8.846;2023-02-01T01:23:08;1.80;99.90
29295;DHT22;16305;48.566;8.846;2023-02-01T01:25:38;1.80;99.90
29295;DHT22;16305;48.566;8.846;2023-02-01T01:28:04;1.80;99.90
29295;DHT22;16305;48.566;8.846;2023-02-01T01:30:30;1.80;99.90
29295;DHT22;16305;48.566;8.846;2023-02-01T01:32:55;1.80;99.90
29295;DHT22;16305;48.566;8.846;2023-02-01T01:35:21;1.80;99.90
29295;DHT22;16305;48.566;8.846;2023-02-01T01:37:46;1.80;99.90
29295;DHT22;16305;48.566;8.846;2023-02-01T01:40:12;1.80;99.90
29295;DHT22;16305;48.566;8.846;2023-02-01T01:42:39;1.80;99.90
29295;DHT22;16305;48.566;8.846;2023-02-01T01:47:37;1.80;99.90
29295;DHT22;16305;48.566;8.846;2023-02-01T01:50:07;1.90;99.90
29295;DHT22;16305;48.566;8.846;2023-02-01T01:52:33;1.90;99.90
29295;DHT22;16305;48.566;8.846;2023-02-01T01:55:00;1.90;99.90
29295;DHT22;16305;48.566;8.846;2023-02-01T01:57:33;1.90;99.90
29295;DHT22;16305;48.566;8.846;2023-02-01T02:00:07;2.00;99.90
29295;DHT22;16305;48.566;8.846;2023-02-01T02:02:35;2.00;99.90
29295;DHT22;16305;48.566;8.846;2023-02-01T02:05:01;2.00;99.90
29295;DHT22;16305;48.566;8.846;2023-02-01T02:07:30;2.00;99.90
29295;DHT22;16305;48.566;8.846;2023-02-01T02:09:57;2.00;99.90
29295;DHT22;16305;48.566;8.846;2023-02-01T02:12:22;1.90;99.90
29295;DHT22;16305;48.566;8.846;2023-02-01T02:14:48;2.00;99.90
29295;DHT22;16305;48.566;8.846;2023-02-01T02:26:29;2.00;99.90
29295;DHT22;16305;48.566;8.846;2023-02-01T02:34:40;2.20;99.90
29295;DHT22;16305;48.566;8.846;2023-02-01T02:40:05;2.20;99.90
29295;DHT22;16305;48.566;8.846;2023-02-01T02:45:49;2.20;99.90
29295;DHT22;16305;48.566;8.846;2023-02-01T02:48:48;2.30;99.90
29295;DHT22;16305;48.566;8.846;2023-02-01T02:51:25;2.30;99.90
29295;DHT22;16305;48.566;8.846;2023-02-01T02:54:15;2.20;99.90
29295;DHT22;16305;48.566;8.846;2023-02-01T02:57:03;2.20;99.90
29295;DHT22;16305;48.566;8.846;2023-02-01T02:59:50;2.20;99.90
29295;DHT22;16305;48.566;8.846;2023-02-01T03:02:34;2.20;99.90
29295;DHT22;16305;48.566;8.846;2023-02-01T03:05:19;2.20;99.90
29295;DHT22;16305;48.566;8.846;2023-02-01T03:13:13;2.20;99.90
29295;DHT22;16305;48.566;8.846;2023-02-01T03:15:50;2.20;99.90
29295;DHT22;16305;48.566;8.846;2023-02-01T03:18:28;2.20;99.90
29295;DHT22;16305;48.566;8.846;2023-02-01T03:20:55;2.20;99.90
29295;DHT22;16305;48.566;8.846;2023-02-01T03:23:27;2.30;99.90
29295;DHT22;16305;48.566;8.846;2023-02-01T03:25:56;2.30;99.90
29295;DHT22;16305;48.566;8.846;2023-02-01T03:28:23;2.30;99.90
29295;DHT22;16305;48.566;8.846;2023-02-01T03:30:50;2.30;99.90
29295;DHT22;16305;48.566;8.846;2023-02-01T03:33:20;2.30;99.90
29295;DHT22;16305;48.566;8.846;2023-02-01T03:41:52;2.40;99.90
29295;DHT22;16305;48.566;8.846;2023-02-01T03:44:40;2.40;99.90
29295;DHT22;16305;48.566;8.846;2023-02-01T03:47:11;2.40;99.90
29295;DHT22;16305;48.566;8.846;2023-02-01T03:49:44;2.40;99.90
29295;DHT22;16305;48.566;8.846;2023-02-01T03:52:17;2.40;99.90
29295;DHT22;16305;48.566;8.846;2023-02-01T03:54:45;2.40;99.90
29295;DHT22;16305;48.566;8.846;2023-02-01T03:57:14;2.40;99.90
29295;DHT22;16305;48.566;8.846;2023-02-01T03:59:43;2.40;99.90
29295;DHT22;16305;48.566;8.846;2023-02-01T04:02:10;2.40;99.90
29295;DHT22;16305;48.566;8.846;2023-02-01T04:04:36;2.40;99.90
29295;DHT22;16305;48.566;8.846;2023-02-01T04:07:02;2.40;99.90
29295;DHT22;16305;48.566;8.846;2023-02-01T04:09:27;2.40;99.90
29295;DHT22;16305;48.566;8.846;2023-02-01T04:11:53;2.40;99.90
29295;DHT22;16305;48.566;8.846;2023-02-01T04:14:19;2.40;99.90
29295;DHT22;16305;48.566;8.846;2023-02-01T04:16:45;2.30;99.90
29295;DHT22;16305;48.566;8.846;2023-02-01T04:19:10;2.30;99.90
29295;DHT22;16305;48.566;8.846;2023-02-01T04:21:36;2.40;99.90
29295;DHT22;16305;48.566;8.846;2023-02-01T04:24:01;2.30;99.90
29295;DHT22;16305;48.566;8.846;2023-02-01T04:26:30;2.30;99.90
29295;DHT22;16305;48.566;8.846;2023-02-01T04:28:55;2.40;99.90
29295;DHT22;16305;48.566;8.846;2023-02-01T04:31:21;2.40;99.90
29295;DHT22;16305;48.566;8.846;2023-02-01T04:33:53;2.40;99.90
29295;DHT22;16305;48.566;8.846;2023-02-01T04:36:20;2.40;99.90
29295;DHT22;16305;48.566;8.846;2023-02-01T04:38:48;2.40;99.90
29295;DHT22;16305;48.566;8.846;2023-02-01T04:41:14;2.40;99.90
29295;DHT22;16305;48.566;8.846;2023-02-01T04:43:40;2.40;99.90
29295;DHT22;16305;48.566;8.846;2023-02-01T04:46:06;2.40;99.90
29295;DHT22;16305;48.566;8.846;2023-02-01T04:48:31;2.40;99.90
29295;DHT22;16305;48.566;8.846;2023-02-01T04:50:58;2.30;99.90
29295;DHT22;16305;48.566;8.846;2023-02-01T04:53:24;2.40;99.90
29295;DHT22;16305;48.566;8.846;2023-02-01T04:55:49;2.40;99.90
29295;DHT22;16305;48.566;8.846;2023-02-01T04:58:15;2.40;99.90
29295;DHT22;16305;48.566;8.846;2023-02-01T05:00:41;2.30;99.90
29295;DHT22;16305;48.566;8.846;2023-02-01T05:03:06;2.40;99.90
29295;DHT22;16305;48.566;8.846;2023-02-01T05:05:32;2.40;99.90
29295;DHT22;16305;48.566;8.846;2023-02-01T05:07:58;2.40;99.90
29295;DHT22;16305;48.566;8.846;2023-02-01T05:10:23;2.40;99.90
29295;DHT22;16305;48.566;8.846;2023-02-01T05:12:49;2.40;99.90
29295;DHT22;16305;48.566;8.846;2023-02-01T05:15:33;2.50;99.90
29295;DHT22;16305;48.566;8.846;2023-02-01T05:17:59;2.50;99.90
29295;DHT22;16305;48.566;8.846;2023-02-01T05:20:25;2.50;99.90
29295;DHT22;16305;48.566;8.846;2023-02-01T05:22:51;2.50;99.90
29295;DHT22;16305;48.566;8.846;2023-02-01T05:25:16;2.50;99.90
29295;DHT22;16305;48.566;8.846;2023-02-01T05:27:42;2.40;99.90
29295;DHT22;16305;48.566;8.846;2023-02-01T05:30:08;2.40;99.90
29295;DHT22;16305;48.566;8.846;2023-02-01T05:32:34;2.40;99.90
29295;DHT22;16305;48.566;8.846;2023-02-01T05:35:00;2.40;99.90
29295;DHT22;16305;48.566;8.846;2023-02-01T05:37:25;2.40;99.90
29295;DHT22;16305;48.566;8.846;2023-02-01T05:39:51;2.40;99.90
29295;DHT22;16305;48.566;8.846;2023-02-01T05:42:16;2.40;99.90
29295;DHT22;16305;48.566;8.846;2023-02-01T05:44:42;2.50;99.90
29295;DHT22;16305;48.566;8.846;2023-02-01T05:47:08;2.50;99.90
29295;DHT22;16305;48.566;8.846;2023-02-01T05:52:01;2.50;99.90
29295;DHT22;16305;48.566;8.846;2023-02-01T05:54:27;2.50;99.90
29295;DHT22;16305;48.566;8.846;2023-02-01T05:56:52;2.50;99.90
29295;DHT22;16305;48.566;8.846;2023-02-01T05:59:18;2.50;99.90
29295;DHT22;16305;48.566;8.846;2023-02-01T06:01:44;2.50;99.90
29295;DHT22;16305;48.566;8.846;2023-02-01T06:04:09;2.50;99.90
29295;DHT22;16305;48.566;8.846;2023-02-01T06:06:35;2.60;99.90
29295;DHT22;16305;48.566;8.846;2023-02-01T06:09:02;2.60;99.90
29295;DHT22;16305;48.566;8.846;2023-02-01T06:11:28;2.60;99.90
29295;DHT22;16305;48.566;8.846;2023-02-01T06:13:53;2.50;99.90
29295;DHT22;16305;48.566;8.846;2023-02-01T06:16:20;2.50;99.90
29295;DHT22;16305;48.566;8.846;2023-02-01T06:18:46;2.50;99.90
29295;DHT22;16305;48.566;8.846;2023-02-01T06:21:11;2.50;99.90
29295;DHT22;16305;48.566;8.846;2023-02-01T06:23:38;2.50;99.90
29295;DHT22;16305;48.566;8.846;2023-02-01T06:26:05;2.50;99.90
29295;DHT22;16305;48.566;8.846;2023-02-01T06:28:33;2.50;99.90
29295;DHT22;16305;48.566;8.846;2023-02-01T06:31:06;2.50;99.90
29295;DHT22;16305;48.566;8.846;2023-02-01T06:33:35;2.50;99.90
29295;DHT22;16305;48.566;8.846;2023-02-01T06:36:03;2.50;99.90
29295;DHT22;16305;48.566;8.846;2023-02-01T06:38:30;2.40;99.90
29295;DHT22;16305;48.566;8.846;2023-02-01T06:40:57;2.50;99.90
29295;DHT22;16305;48.566;8.846;2023-02-01T06:43:26;2.50;99.90
29295;DHT22;16305;48.566;8.846;2023-02-01T06:45:52;2.50;99.90
29295;DHT22;16305;48.566;8.846;2023-02-01T06:48:19;2.50;99.90
29295;DHT22;16305;48.566;8.846;2023-02-01T06:50:44;2.50;99.90
29295;DHT22;16305;48.566;8.846;2023-02-01T06:53:10;2.60;99.90
29295;DHT22;16305;48.566;8.846;2023-02-01T06:55:35;2.70;99.90
29295;DHT22;16305;48.566;8.846;2023-02-01T06:58:01;2.70;99.90
29295;DHT22;16305;48.566;8.846;2023-02-01T07:00:27;2.70;99.90
29295;DHT22;16305;48.566;8.846;2023-02-01T07:02:53;2.60;99.90
29295;DHT22;16305;48.566;8.846;2023-02-01T07:05:19;2.60;99.90
29295;DHT22;16305;48.566;8.846;2023-02-01T07:07:44;2.50;99.90
29295;DHT22;16305;48.566;8.846;2023-02-01T07:10:10;2.40;99.90
29295;DHT22;16305;48.566;8.846;2023-02-01T07:12:36;2.40;99.90
29295;DHT22;16305;48.566;8.846;2023-02-01T07:15:02;2.40;99.90
29295;DHT22;16305;48.566;8.846;2023-02-01T07:17:28;2.40;99.90
29295;DHT22;16305;48.566;8.846;2023-02-01T07:19:55;2.50;99.90
29295;DHT22;16305;48.566;8.846;2023-02-01T07:22:20;2.40;99.90
29295;DHT22;16305;48.566;8.846;2023-02-01T07:24:46;2.50;99.90
29295;DHT22;16305;48.566;8.846;2023-02-01T07:27:11;2.50;99.90
29295;DHT22;16305;48.566;8.846;2023-02-01T07:29:37;2.50;99.90
29295;DHT22;16305;48.566;8.846;2023-02-01T07:32:02;2.50;99.90
29295;DHT22;16305;48.566;8.846;2023-02-01T07:34:28;2.50;99.90
29295;DHT22;16305;48.566;8.846;2023-02-01T07:36:55;2.60;99.90
29295;DHT22;16305;48.566;8.846;2023-02-01T07:39:21;2.60;99.90
29295;DHT22;16305;48.566;8.846;2023-02-01T07:41:46;2.60;99.90
29295;DHT22;16305;48.566;8.846;2023-02-01T07:44:12;2.60;99.90
29295;DHT22;16305;48.566;8.846;2023-02-01T07:46:37;2.70;99.90
29295;DHT22;16305;48.566;8.846;2023-02-01T07:49:04;2.70;99.90
29295;DHT22;16305;48.566;8.846;2023-02-01T07:51:30;2.70;99.90
29295;DHT22;16305;48.566;8.846;2023-02-01T07:53:56;2.70;99.90
29295;DHT22;16305;48.566;8.846;2023-02-01T07:56:22;2.70;99.90
29295;DHT22;16305;48.566;8.846;2023-02-01T07:58:53;2.80;99.90
29295;DHT22;16305;48.566;8.846;2023-02-01T08:01:24;2.80;99.90
29295;DHT22;16305;48.566;8.846;2023-02-01T08:04:01;2.80;99.90
29295;DHT22;16305;48.566;8.846;2023-02-01T08:06:29;2.80;99.90
29295;DHT22;16305;48.566;8.846;2023-02-01T08:08:56;2.80;99.90
29295;DHT22;16305;48.566;8.846;2023-02-01T08:11:22;2.90;99.90
29295;DHT22;16305;48.566;8.846;2023-02-01T08:13:48;2.90;99.90
29295;DHT22;16305;48.566;8.846;2023-02-01T08:16:16;2.90;99.90
29295;DHT22;16305;48.566;8.846;2023-02-01T08:18:42;3.00;99.90
29295;DHT22;16305;48.566;8.846;2023-02-01T08:21:11;3.00;99.90
29295;DHT22;16305;48.566;8.846;2023-02-01T08:23:38;3.00;99.90
29295;DHT22;16305;48.566;8.846;2023-02-01T08:28:38;3.20;99.90
29295;DHT22;16305;48.566;8.846;2023-02-01T08:31:13;3.30;99.90
29295;DHT22;16305;48.566;8.846;2023-02-01T08:33:42;3.30;99.90
29295;DHT22;16305;48.566;8.846;2023-02-01T08:36:09;3.40;99.90
29295;DHT22;16305;48.566;8.846;2023-02-01T08:38:37;3.40;99.90
29295;DHT22;16305;48.566;8.846;2023-02-01T08:41:07;3.40;99.90
29295;DHT22;16305;48.566;8.846;2023-02-01T08:43:32;3.40;99.90
29295;DHT22;16305;48.566;8.846;2023-02-01T08:45:58;3.40;99.90
29295;DHT22;16305;48.566;8.846;2023-02-01T08:48:23;3.50;99.90
29295;DHT22;16305;48.566;8.846;2023-02-01T08:50:49;3.50;99.90
29295;DHT22;16305;48.566;8.846;2023-02-01T08:53:14;3.50;99.90
29295;DHT22;16305;48.566;8.846;2023-02-01T08:55:40;3.50;99.90
29295;DHT22;16305;48.566;8.846;2023-02-01T08:58:06;3.60;99.90
29295;DHT22;16305;48.566;8.846;2023-02-01T09:00:31;3.60;99.90
29295;DHT22;16305;48.566;8.846;2023-02-01T09:02:57;3.60;99.90
29295;DHT22;16305;48.566;8.846;2023-02-01T09:05:23;3.60;99.90
29295;DHT22;16305;48.566;8.846;2023-02-01T09:07:52;3.60;99.90
29295;DHT22;16305;48.566;8.846;2023-02-01T09:10:18;3.60;99.90
29295;DHT22;16305;48.566;8.846;2023-02-01T09:12:43;3.50;99.90
29295;DHT22;16305;48.566;8.846;2023-02-01T09:15:09;3.50;99.90
29295;DHT22;16305;48.566;8.846;2023-02-01T09:17:35;3.50;99.90
29295;DHT22;16305;48.566;8.846;2023-02-01T09:20:01;3.50;99.90
29295;DHT22;16305;48.566;8.846;2023-02-01T09:22:26;3.50;99.90
29295;DHT22;16305;48.566;8.846;2023-02-01T09:24:52;3.50;99.90
29295;DHT22;16305;48.566;8.846;2023-02-01T09:27:18;3.50;99.90
29295;DHT22;16305;48.566;8.846;2023-02-01T09:29:44;3.50;99.90
29295;DHT22;16305;48.566;8.846;2023-02-01T09:32:10;3.50;99.90
29295;DHT22;16305;48.566;8.846;2023-02-01T09:34:35;3.50;99.90
29295;DHT22;16305;48.566;8.846;2023-02-01T09:37:01;3.50;99.90
29295;DHT22;16305;48.566;8.846;2023-02-01T09:39:27;3.50;99.90
29295;DHT22;16305;48.566;8.846;2023-02-01T09:42:03;3.50;99.90
29295;DHT22;16305;48.566;8.846;2023-02-01T09:47:23;3.60;99.90
29295;DHT22;16305;48.566;8.846;2023-02-01T09:50:02;3.70;99.90
29295;DHT22;16305;48.566;8.846;2023-02-01T09:55:11;3.80;99.90
29295;DHT22;16305;48.566;8.846;2023-02-01T09:57:49;3.90;99.90
29295;DHT22;16305;48.566;8.846;2023-02-01T10:00:20;3.90;99.90
29295;DHT22;16305;48.566;8.846;2023-02-01T10:02:49;3.90;99.90
29295;DHT22;16305;48.566;8.846;2023-02-01T10:05:18;4.00;99.90
29295;DHT22;16305;48.566;8.846;2023-02-01T10:07:57;4.00;99.90
29295;DHT22;16305;48.566;8.846;2023-02-01T10:10:31;4.00;99.90
29295;DHT22;16305;48.566;8.846;2023-02-01T10:24:23;4.60;99.90
29295;DHT22;16305;48.566;8.846;2023-02-01T10:27:17;4.60;99.90
29295;DHT22;16305;48.566;8.846;2023-02-01T10:29:46;4.60;99.90
29295;DHT22;16305;48.566;8.846;2023-02-01T10:32:19;4.60;99.90
29295;DHT22;16305;48.566;8.846;2023-02-01T10:34:50;4.60;99.90
29295;DHT22;16305;48.566;8.846;2023-02-01T10:39:48;4.60;99.90
29295;DHT22;16305;48.566;8.846;2023-02-01T10:42:14;4.50;99.90
29295;DHT22;16305;48.566;8.846;2023-02-01T10:44:42;4.50;99.90
29295;DHT22;16305;48.566;8.846;2023-02-01T10:47:10;4.50;99.90
29295;DHT22;16305;48.566;8.846;2023-02-01T10:49:49;4.40;99.90
29295;DHT22;16305;48.566;8.846;2023-02-01T10:52:36;4.40;99.90
29295;DHT22;16305;48.566;8.846;2023-02-01T10:58:05;4.50;99.90
29295;DHT22;16305;48.566;8.846;2023-02-01T11:00:43;4.50;99.90
29295;DHT22;16305;48.566;8.846;2023-02-01T11:06:11;4.60;99.90
29295;DHT22;16305;48.566;8.846;2023-02-01T11:08:43;4.70;99.90
29295;DHT22;16305;48.566;8.846;2023-02-01T11:11:10;4.80;99.90
29295;DHT22;16305;48.566;8.846;2023-02-01T11:13:38;4.80;99.90
29295;DHT22;16305;48.566;8.846;2023-02-01T11:16:05;4.90;99.90
29295;DHT22;16305;48.566;8.846;2023-02-01T11:18:35;4.80;99.90
29295;DHT22;16305;48.566;8.846;2023-02-01T11:21:02;4.60;99.90
29295;DHT22;16305;48.566;8.846;2023-02-01T11:23:29;4.50;99.90
29295;DHT22;16305;48.566;8.846;2023-02-01T11:25:58;4.50;99.90
29295;DHT22;16305;48.566;8.846;2023-02-01T11:28:26;4.50;99.90
29295;DHT22;16305;48.566;8.846;2023-02-01T11:30:56;4.50;99.90
29295;DHT22;16305;48.566;8.846;2023-02-01T11:33:30;4.50;99.90
29295;DHT22;16305;48.566;8.846;2023-02-01T11:35:59;4.60;99.90
29295;DHT22;16305;48.566;8.846;2023-02-01T11:40:53;4.70;99.90
29295;DHT22;16305;48.566;8.846;2023-02-01T11:43:27;4.90;99.90
29295;DHT22;16305;48.566;8.846;2023-02-01T11:48:20;4.90;99.90
29295;DHT22;16305;48.566;8.846;2023-02-01T11:59:05;4.80;99.90
29295;DHT22;16305;48.566;8.846;2023-02-01T12:04:37;4.70;99.90
29295;DHT22;16305;48.566;8.846;2023-02-01T12:08:10;4.70;99.90
29295;DHT22;16305;48.566;8.846;2023-02-01T12:13:13;4.60;99.90
29295;DHT22;16305;48.566;8.846;2023-02-01T12:15:58;4.60;99.90
29295;DHT22;16305;48.566;8.846;2023-02-01T12:18:50;4.50;99.90
29295;DHT22;16305;48.566;8.846;2023-02-01T12:21:53;4.50;99.90
29295;DHT22;16305;48.566;8.846;2023-02-01T12:24:35;4.40;99.90
29295;DHT22;16305;48.566;8.846;2023-02-01T12:27:35;4.40;99.90
29295;DHT22;16305;48.566;8.846;2023-02-01T12:30:39;4.40;99.90
29295;DHT22;16305;48.566;8.846;2023-02-01T12:33:39;4.40;99.90
29295;DHT22;16305;48.566;8.846;2023-02-01T12:36:14;4.40;99.90
29295;DHT22;16305;48.566;8.846;2023-02-01T12:39:07;4.30;99.90
29295;DHT22;16305;48.566;8.846;2023-02-01T12:41:47;4.30;99.90
29295;DHT22;16305;48.566;8.846;2023-02-01T12:44:27;4.30;99.90
29295;DHT22;16305;48.566;8.846;2023-02-01T12:47:03;4.30;99.90
29295;DHT22;16305;48.566;8.846;2023-02-01T12:49:50;4.30;99.90
29295;DHT22;16305;48.566;8.846;2023-02-01T12:52:30;4.30;99.90
29295;DHT22;16305;48.566;8.846;2023-02-01T13:00:45;4.30;99.90
29295;DHT22;16305;48.566;8.846;2023-02-01T13:06:05;4.20;99.90
29295;DHT22;16305;48.566;8.846;2023-02-01T13:08:56;4.20;99.90
29295;DHT22;16305;48.566;8.846;2023-02-01T13:11:38;4.20;99.90
29295;DHT22;16305;48.566;8.846;2023-02-01T13:14:27;4.20;99.90
29295;DHT22;16305;48.566;8.846;2023-02-01T13:17:06;4.10;99.90
29295;DHT22;16305;48.566;8.846;2023-02-01T13:19:49;4.10;99.90
29295;DHT22;16305;48.566;8.846;2023-02-01T13:22:34;4.10;99.90
29295;DHT22;16305;48.566;8.846;2023-02-01T13:25:12;4.10;99.90
29295;DHT22;16305;48.566;8.846;2023-02-01T13:27:38;4.10;99.90
29295;DHT22;16305;48.566;8.846;2023-02-01T13:30:24;4.10;99.90
29295;DHT22;16305;48.566;8.846;2023-02-01T13:33:19;4.20;99.90
29295;DHT22;16305;48.566;8.846;2023-02-01T13:38:53;4.30;99.90
29295;DHT22;16305;48.566;8.846;2023-02-01T13:41:27;4.30;99.90
29295;DHT22;16305;48.566;8.846;2023-02-01T13:44:03;4.30;99.90
29295;DHT22;16305;48.566;8.846;2023-02-01T13:46:42;4.20;99.90
29295;DHT22;16305;48.566;8.846;2023-02-01T13:49:18;4.20;99.90
29295;DHT22;16305;48.566;8.846;2023-02-01T13:51:47;4.20;99.90
29295;DHT22;16305;48.566;8.846;2023-02-01T13:54:33;4.20;99.90
29295;DHT22;16305;48.566;8.846;2023-02-01T13:57:01;4.20;99.90
29295;DHT22;16305;48.566;8.846;2023-02-01T14:02:36;4.10;99.90
29295;DHT22;16305;48.566;8.846;2023-02-01T14:05:01;4.10;99.90
29295;DHT22;16305;48.566;8.846;2023-02-01T14:07:27;4.10;99.90
29295;DHT22;16305;48.566;8.846;2023-02-01T14:09:53;4.20;99.90
29295;DHT22;16305;48.566;8.846;2023-02-01T14:12:46;4.10;99.90
29295;DHT22;16305;48.566;8.846;2023-02-01T14:15:24;4.20;99.90
29295;DHT22;16305;48.566;8.846;2023-02-01T14:17:50;4.20;99.90
29295;DHT22;16305;48.566;8.846;2023-02-01T14:20:44;4.30;99.90
29295;DHT22;16305;48.566;8.846;2023-02-01T14:23:20;4.40;99.90
29295;DHT22;16305;48.566;8.846;2023-02-01T14:25:59;4.40;99.90
29295;DHT22;16305;48.566;8.846;2023-02-01T14:28:28;4.40;99.90
29295;DHT22;16305;48.566;8.846;2023-02-01T14:30:56;4.50;99.90
29295;DHT22;16305;48.566;8.846;2023-02-01T14:33:27;4.50;99.90
29295;DHT22;16305;48.566;8.846;2023-02-01T14:36:06;4.50;99.90
29295;DHT22;16305;48.566;8.846;2023-02-01T14:38:33;4.50;99.90
29295;DHT22;16305;48.566;8.846;2023-02-01T14:41:24;4.50;99.90
29295;DHT22;16305;48.566;8.846;2023-02-01T14:47:09;4.50;99.90
29295;DHT22;16305;48.566;8.846;2023-02-01T14:52:17;4.50;99.90
29295;DHT22;16305;48.566;8.846;2023-02-01T14:54:46;4.50;99.90
29295;DHT22;16305;48.566;8.846;2023-02-01T14:57:18;4.50;99.90
29295;DHT22;16305;48.566;8.846;2023-02-01T14:59:45;4.50;99.90
29295;DHT22;16305;48.566;8.846;2023-02-01T15:02:21;4.40;99.90
29295;DHT22;16305;48.566;8.846;2023-02-01T15:04:54;4.40;99.90
29295;DHT22;16305;48.566;8.846;2023-02-01T15:07:22;4.40;99.90
29295;DHT22;16305;48.566;8.846;2023-02-01T15:09:50;4.30;99.90
29295;DHT22;16305;48.566;8.846;2023-02-01T15:12:18;4.30;99.90
29295;DHT22;16305;48.566;8.846;2023-02-01T15:15:12;4.30;99.90
29295;DHT22;16305;48.566;8.846;2023-02-01T15:17:39;4.30;99.90
29295;DHT22;16305;48.566;8.846;2023-02-01T15:20:18;4.30;99.90
29295;DHT22;16305;48.566;8.846;2023-02-01T15:22:56;4.30;99.90
29295;DHT22;16305;48.566;8.846;2023-02-01T15:25:28;4.30;99.90
29295;DHT22;16305;48.566;8.846;2023-02-01T15:27:54;4.30;99.90
29295;DHT22;16305;48.566;8.846;2023-02-01T15:30:28;4.30;99.90
29295;DHT22;16305;48.566;8.846;2023-02-01T15:35:47;4.30;99.90
29295;DHT22;16305;48.566;8.846;2023-02-01T15:41:00;4.30;99.90
29295;DHT22;16305;48.566;8.846;2023-02-01T15:43:27;4.20;99.90
29295;DHT22;16305;48.566;8.846;2023-02-01T15:46:02;4.20;99.90
29295;DHT22;16305;48.566;8.846;2023-02-01T15:48:35;4.20;99.90
29295;DHT22;16305;48.566;8.846;2023-02-01T15:51:02;4.20;99.90
29295;DHT22;16305;48.566;8.846;2023-02-01T15:53:28;4.20;99.90
29295;DHT22;16305;48.566;8.846;2023-02-01T15:56:01;4.20;99.90
29295;DHT22;16305;48.566;8.846;2023-02-01T15:58:28;4.20;99.90
29295;DHT22;16305;48.566;8.846;2023-02-01T16:00:58;4.20;99.90
29295;DHT22;16305;48.566;8.846;2023-02-01T16:03:35;4.20;99.90
29295;DHT22;16305;48.566;8.846;2023-02-01T16:06:04;4.10;99.90
29295;DHT22;16305;48.566;8.846;2023-02-01T16:08:31;4.10;99.90
29295;DHT22;16305;48.566;8.846;2023-02-01T16:11:19;4.10;99.90
29295;DHT22;16305;48.566;8.846;2023-02-01T16:13:45;4.10;99.90
29295;DHT22;16305;48.566;8.846;2023-02-01T16:16:11;4.10;99.90
29295;DHT22;16305;48.566;8.846;2023-02-01T16:18:42;4.10;99.90
29295;DHT22;16305;48.566;8.846;2023-02-01T16:21:07;4.00;99.90
29295;DHT22;16305;48.566;8.846;2023-02-01T16:23:34;4.10;99.90
29295;DHT22;16305;48.566;8.846;2023-02-01T16:26:00;4.00;99.90
29295;DHT22;16305;48.566;8.846;2023-02-01T16:28:25;3.90;99.90
29295;DHT22;16305;48.566;8.846;2023-02-01T16:30:51;4.00;99.90
29295;DHT22;16305;48.566;8.846;2023-02-01T16:33:20;3.90;99.90
29295;DHT22;16305;48.566;8.846;2023-02-01T16:35:47;3.90;99.90
29295;DHT22;16305;48.566;8.846;2023-02-01T16:38:15;3.90;99.90
29295;DHT22;16305;48.566;8.846;2023-02-01T16:40:44;3.90;99.90
29295;DHT22;16305;48.566;8.846;2023-02-01T16:43:19;3.90;99.90
29295;DHT22;16305;48.566;8.846;2023-02-01T16:45:46;3.90;99.90
29295;DHT22;16305;48.566;8.846;2023-02-01T16:48:27;3.80;99.90
29295;DHT22;16305;48.566;8.846;2023-02-01T16:50:58;3.80;99.90
29295;DHT22;16305;48.566;8.846;2023-02-01T16:53:26;3.80;99.90
29295;DHT22;16305;48.566;8.846;2023-02-01T16:55:56;3.80;99.90
29295;DHT22;16305;48.566;8.846;2023-02-01T16:58:23;3.80;99.90
29295;DHT22;16305;48.566;8.846;2023-02-01T17:00:49;3.70;99.90
29295;DHT22;16305;48.566;8.846;2023-02-01T17:03:16;3.70;99.90
29295;DHT22;16305;48.566;8.846;2023-02-01T17:05:52;3.80;99.90
29295;DHT22;16305;48.566;8.846;2023-02-01T17:08:25;3.80;99.90
29295;DHT22;16305;48.566;8.846;2023-02-01T17:10:52;3.70;99.90
29295;DHT22;16305;48.566;8.846;2023-02-01T17:13:18;3.70;99.90
29295;DHT22;16305;48.566;8.846;2023-02-01T17:15:49;3.80;99.90
29295;DHT22;16305;48.566;8.846;2023-02-01T17:18:16;3.70;99.90
29295;DHT22;16305;48.566;8.846;2023-02-01T17:20:42;3.80;99.90
29295;DHT22;16305;48.566;8.846;2023-02-01T17:23:08;3.80;99.90
29295;DHT22;16305;48.566;8.846;2023-02-01T17:25:34;3.70;99.90
29295;DHT22;16305;48.566;8.846;2023-02-01T17:27:59;3.70;99.90
29295;DHT22;16305;48.566;8.846;2023-02-01T17:30:25;3.70;99.90
29295;DHT22;16305;48.566;8.846;2023-02-01T17:32:51;3.70;99.90
29295;DHT22;16305;48.566;8.846;2023-02-01T17:35:22;3.70;99.90
29295;DHT22;16305;48.566;8.846;2023-02-01T17:37:49;3.80;99.90
29295;DHT22;16305;48.566;8.846;2023-02-01T17:40:15;3.70;99.90
29295;DHT22;16305;48.566;8.846;2023-02-01T17:42:40;3.90;99.90
29295;DHT22;16305;48.566;8.846;2023-02-01T17:48:05;3.80;99.90
29295;DHT22;16305;48.566;8.846;2023-02-01T17:50:33;3.90;99.90
29295;DHT22;16305;48.566;8.846;2023-02-01T17:52:59;3.80;99.90
29295;DHT22;16305;48.566;8.846;2023-02-01T17:55:27;3.90;99.90
29295;DHT22;16305;48.566;8.846;2023-02-01T17:57:53;3.90;99.90
29295;DHT22;16305;48.566;8.846;2023-02-01T18:00:19;3.90;99.90